aviador You're here:

KELN Decoded Metar

ELLENSBURG in WA, USA
Report Time2017-04-30 13:53:00
UTC Time2017-04-30 14:55:49
Flight Rules vfr VFR
Wind320° at 15 Gusting to 23 kt
W.Decomp.*RWY 29: 14.6 kt HW 3.6 kt RCW
RWY 25: 8.8 kt HW 12.1 kt RCW
W.Rank320° ranks 2
Current wind is above 320° avg. (13.2)
Visibility9999 m
Phenomena:N/A
Clouds:N/A
Expected CloudBase > 2,800 ft AGL from Temp-Dew spread
CeilingNone
Temp09°C (ISA -3)
Dew Point02°C (62% RH)
AAT1.9°C
QNH1018 hPa
Density Alt1,325 ft
Elevation1,703 ft
Report Wrong Elevation
Raw Report
METAR KELN 301353Z AUTO 32015G23KT 10SM CLR 09/02 A3005 RMK AO2 SLP176
T00890022=

Extra information for KELN:More info

Metar Taf Metar & Taf Last 4 Metars F.Rules Stats Wind Profile Meteogram Temp Stats Airport Information Weather charts Add Link Nearby VenuesMetar ALERT Operation Metar Decoded Social comments

AIRNAV info for KELN